Opal, Wyoming
Current Conditions -  °F | °C
As of 10:35 AM on Tuesday 21 Oct 2014 (Local Time) from KEMM Reporting Station
Broken Clouds Broken Clouds  
Wind Chill: 55°   Ceiling: 6500
Heat Index: 55°   Visibility: 10mi
Dew Point: 36°   Wind: 13mph
Humidity: 47%   Direction: 180°S
Pressure: 30.02"   Gusts: NA
Location:  41.77°N, 110.33°W
Report Text: KEMM 211635Z AUTO 18011KT 10SM SCT055 BKN065 BKN080 13/02 A3002 RMK AO2
Loading
Personal Weather Stations






























Interactive Weather Map
Tropical Storm Tracking
New forecast layout! Learn more

10-Day Weather Forecast

Advertisements
Track Severe Weather on mobile